sensor_id;sensor_type;location;lat;lon;timestamp;pressure;altitude;pressure_sealevel;temperature;humidity
37848;BME280;23688;33.130;-117.188;2023-04-26T00:01:28;99161.75;;;15.90;100.00
37848;BME280;23688;33.130;-117.188;2023-04-26T00:03:55;99168.66;;;15.84;100.00
37848;BME280;23688;33.130;-117.188;2023-04-26T00:06:22;99181.59;;;15.74;100.00
37848;BME280;23688;33.130;-117.188;2023-04-26T00:08:48;99174.72;;;15.82;100.00
37848;BME280;23688;33.130;-117.188;2023-04-26T00:11:14;99181.16;;;16.02;100.00
37848;BME280;23688;33.130;-117.188;2023-04-26T00:13:41;99189.94;;;16.09;100.00
37848;BME280;23688;33.130;-117.188;2023-04-26T00:16:07;99188.16;;;16.05;100.00
37848;BME280;23688;33.130;-117.188;2023-04-26T00:18:33;99184.53;;;15.95;100.00
37848;BME280;23688;33.130;-117.188;2023-04-26T00:21:00;99196.63;;;15.87;100.00
37848;BME280;23688;33.130;-117.188;2023-04-26T00:23:26;99187.84;;;15.83;100.00
37848;BME280;23688;33.130;-117.188;2023-04-26T00:25:53;99201.50;;;15.67;100.00
37848;BME280;23688;33.130;-117.188;2023-04-26T00:28:19;99208.59;;;15.71;100.00
37848;BME280;23688;33.130;-117.188;2023-04-26T00:30:46;99199.72;;;15.65;100.00
37848;BME280;23688;33.130;-117.188;2023-04-26T00:33:14;99202.78;;;15.92;100.00
37848;BME280;23688;33.130;-117.188;2023-04-26T00:35:40;99196.22;;;15.64;100.00
37848;BME280;23688;33.130;-117.188;2023-04-26T00:38:06;99196.94;;;15.54;100.00
37848;BME280;23688;33.130;-117.188;2023-04-26T00:40:33;99202.97;;;15.50;100.00
37848;BME280;23688;33.130;-117.188;2023-04-26T00:43:03;99211.91;;;15.61;100.00
37848;BME280;23688;33.130;-117.188;2023-04-26T00:45:30;99207.09;;;15.35;100.00
37848;BME280;23688;33.130;-117.188;2023-04-26T00:48:00;99199.06;;;15.26;100.00
37848;BME280;23688;33.130;-117.188;2023-04-26T00:50:27;99198.59;;;15.49;100.00
37848;BME280;23688;33.130;-117.188;2023-04-26T00:52:55;99187.78;;;15.27;100.00
37848;BME280;23688;33.130;-117.188;2023-04-26T00:55:22;99206.09;;;15.29;100.00
37848;BME280;23688;33.130;-117.188;2023-04-26T00:57:49;99211.09;;;15.16;100.00
37848;BME280;23688;33.130;-117.188;2023-04-26T01:00:15;99210.00;;;15.02;100.00
37848;BME280;23688;33.130;-117.188;2023-04-26T01:02:42;99202.06;;;14.97;100.00
37848;BME280;23688;33.130;-117.188;2023-04-26T01:05:08;99194.22;;;14.97;100.00
37848;BME280;23688;33.130;-117.188;2023-04-26T01:07:38;99201.47;;;15.14;100.00
37848;BME280;23688;33.130;-117.188;2023-04-26T01:10:05;99188.97;;;15.48;100.00
37848;BME280;23688;33.130;-117.188;2023-04-26T01:12:31;99180.66;;;15.70;100.00
37848;BME280;23688;33.130;-117.188;2023-04-26T01:15:02;99196.63;;;15.86;100.00
37848;BME280;23688;33.130;-117.188;2023-04-26T01:17:29;99204.56;;;15.93;100.00
37848;BME280;23688;33.130;-117.188;2023-04-26T01:19:55;99202.88;;;15.95;100.00
37848;BME280;23688;33.130;-117.188;2023-04-26T01:22:22;99206.53;;;15.53;100.00
37848;BME280;23688;33.130;-117.188;2023-04-26T01:24:50;99204.34;;;15.28;100.00
37848;BME280;23688;33.130;-117.188;2023-04-26T01:27:16;99214.47;;;15.59;100.00
37848;BME280;23688;33.130;-117.188;2023-04-26T01:29:43;99205.75;;;15.59;100.00
37848;BME280;23688;33.130;-117.188;2023-04-26T01:32:10;99212.25;;;15.81;100.00
37848;BME280;23688;33.130;-117.188;2023-04-26T01:34:37;99213.06;;;15.78;100.00
37848;BME280;23688;33.130;-117.188;2023-04-26T01:37:03;99216.44;;;15.71;100.00
37848;BME280;23688;33.130;-117.188;2023-04-26T01:39:29;99208.56;;;15.70;100.00
37848;BME280;23688;33.130;-117.188;2023-04-26T01:41:56;99214.75;;;15.75;100.00
37848;BME280;23688;33.130;-117.188;2023-04-26T01:44:25;99218.09;;;15.68;100.00
37848;BME280;23688;33.130;-117.188;2023-04-26T01:46:51;99232.22;;;15.76;100.00
37848;BME280;23688;33.130;-117.188;2023-04-26T01:49:18;99225.25;;;15.76;100.00
37848;BME280;23688;33.130;-117.188;2023-04-26T01:51:44;99226.31;;;15.89;100.00
37848;BME280;23688;33.130;-117.188;2023-04-26T01:54:10;99222.19;;;15.52;100.00
37848;BME280;23688;33.130;-117.188;2023-04-26T01:56:37;99235.75;;;15.29;100.00
37848;BME280;23688;33.130;-117.188;2023-04-26T01:59:03;99234.94;;;15.32;100.00
37848;BME280;23688;33.130;-117.188;2023-04-26T02:01:29;99229.03;;;15.44;100.00
37848;BME280;23688;33.130;-117.188;2023-04-26T02:03:56;99234.28;;;15.44;100.00
37848;BME280;23688;33.130;-117.188;2023-04-26T02:06:22;99235.84;;;15.35;100.00
37848;BME280;23688;33.130;-117.188;2023-04-26T02:08:49;99218.28;;;15.28;100.00
37848;BME280;23688;33.130;-117.188;2023-04-26T02:11:15;99236.13;;;15.51;100.00
37848;BME280;23688;33.130;-117.188;2023-04-26T02:13:41;99224.38;;;15.27;100.00
37848;BME280;23688;33.130;-117.188;2023-04-26T02:16:08;99238.47;;;15.35;100.00
37848;BME280;23688;33.130;-117.188;2023-04-26T02:18:34;99234.16;;;15.37;100.00
37848;BME280;23688;33.130;-117.188;2023-04-26T02:21:00;99240.78;;;15.17;100.00
37848;BME280;23688;33.130;-117.188;2023-04-26T02:23:26;99258.09;;;15.12;100.00
37848;BME280;23688;33.130;-117.188;2023-04-26T02:25:53;99249.13;;;14.97;100.00
37848;BME280;23688;33.130;-117.188;2023-04-26T02:28:19;99253.75;;;15.14;100.00
37848;BME280;23688;33.130;-117.188;2023-04-26T02:30:46;99251.19;;;15.15;100.00
37848;BME280;23688;33.130;-117.188;2023-04-26T02:33:12;99254.72;;;15.19;100.00
37848;BME280;23688;33.130;-117.188;2023-04-26T02:35:40;99257.66;;;15.36;100.00
37848;BME280;23688;33.130;-117.188;2023-04-26T02:38:06;99251.72;;;15.45;100.00
37848;BME280;23688;33.130;-117.188;2023-04-26T02:40:32;99244.34;;;15.24;100.00
37848;BME280;23688;33.130;-117.188;2023-04-26T02:42:59;99258.16;;;15.16;100.00
37848;BME280;23688;33.130;-117.188;2023-04-26T02:45:25;99245.09;;;15.16;100.00
37848;BME280;23688;33.130;-117.188;2023-04-26T02:47:51;99260.09;;;15.25;100.00
37848;BME280;23688;33.130;-117.188;2023-04-26T02:50:18;99274.50;;;15.03;100.00
37848;BME280;23688;33.130;-117.188;2023-04-26T02:52:47;99276.81;;;14.89;100.00
37848;BME280;23688;33.130;-117.188;2023-04-26T02:55:16;99288.66;;;14.72;100.00
37848;BME280;23688;33.130;-117.188;2023-04-26T02:57:42;99287.63;;;14.65;100.00
37848;BME280;23688;33.130;-117.188;2023-04-26T03:00:09;99277.53;;;14.82;100.00
37848;BME280;23688;33.130;-117.188;2023-04-26T03:02:38;99287.06;;;14.80;100.00
37848;BME280;23688;33.130;-117.188;2023-04-26T03:05:08;99284.94;;;14.61;100.00
37848;BME280;23688;33.130;-117.188;2023-04-26T03:07:35;99297.19;;;14.63;100.00
37848;BME280;23688;33.130;-117.188;2023-04-26T03:10:05;99306.81;;;14.66;100.00
37848;BME280;23688;33.130;-117.188;2023-04-26T03:12:33;99306.38;;;14.47;100.00
37848;BME280;23688;33.130;-117.188;2023-04-26T03:15:00;99302.03;;;14.48;100.00
37848;BME280;23688;33.130;-117.188;2023-04-26T03:17:28;99314.56;;;14.63;100.00
37848;BME280;23688;33.130;-117.188;2023-04-26T03:19:58;99311.34;;;14.74;100.00
37848;BME280;23688;33.130;-117.188;2023-04-26T03:22:25;99315.91;;;14.83;100.00
37848;BME280;23688;33.130;-117.188;2023-04-26T03:24:51;99316.88;;;14.88;100.00
37848;BME280;23688;33.130;-117.188;2023-04-26T03:27:20;99324.97;;;14.60;100.00
37848;BME280;23688;33.130;-117.188;2023-04-26T03:29:46;99329.41;;;14.64;100.00
37848;BME280;23688;33.130;-117.188;2023-04-26T03:32:13;99318.56;;;14.47;100.00
37848;BME280;23688;33.130;-117.188;2023-04-26T03:34:41;99333.38;;;14.48;100.00
37848;BME280;23688;33.130;-117.188;2023-04-26T03:37:07;99342.94;;;14.47;100.00
37848;BME280;23688;33.130;-117.188;2023-04-26T03:39:34;99342.94;;;14.47;100.00
37848;BME280;23688;33.130;-117.188;2023-04-26T03:42:00;99338.06;;;14.61;100.00
37848;BME280;23688;33.130;-117.188;2023-04-26T03:44:28;99345.94;;;14.63;100.00
37848;BME280;23688;33.130;-117.188;2023-04-26T03:46:57;99349.22;;;14.54;100.00
37848;BME280;23688;33.130;-117.188;2023-04-26T03:49:23;99352.56;;;14.50;100.00
37848;BME280;23688;33.130;-117.188;2023-04-26T03:51:49;99357.63;;;14.42;100.00
37848;BME280;23688;33.130;-117.188;2023-04-26T03:54:16;99351.31;;;14.32;100.00
37848;BME280;23688;33.130;-117.188;2023-04-26T03:56:42;99360.72;;;14.26;100.00
37848;BME280;23688;33.130;-117.188;2023-04-26T03:59:09;99362.19;;;14.51;100.00
37848;BME280;23688;33.130;-117.188;2023-04-26T04:01:35;99372.06;;;14.63;100.00
37848;BME280;23688;33.130;-117.188;2023-04-26T04:04:01;99369.88;;;14.81;100.00
37848;BME280;23688;33.130;-117.188;2023-04-26T04:06:28;99363.66;;;14.76;100.00
37848;BME280;23688;33.130;-117.188;2023-04-26T04:08:54;99363.81;;;14.84;100.00
37848;BME280;23688;33.130;-117.188;2023-04-26T04:11:20;99358.44;;;14.77;100.00
37848;BME280;23688;33.130;-117.188;2023-04-26T04:13:47;99366.22;;;14.74;100.00
37848;BME280;23688;33.130;-117.188;2023-04-26T04:16:14;99369.97;;;14.86;100.00
37848;BME280;23688;33.130;-117.188;2023-04-26T04:18:42;99366.91;;;15.07;100.00
37848;BME280;23688;33.130;-117.188;2023-04-26T04:21:08;99374.97;;;15.16;100.00
37848;BME280;23688;33.130;-117.188;2023-04-26T04:23:35;99373.41;;;15.24;100.00
37848;BME280;23688;33.130;-117.188;2023-04-26T04:26:01;99384.19;;;15.39;100.00
37848;BME280;23688;33.130;-117.188;2023-04-26T04:28:28;99391.16;;;15.39;100.00
37848;BME280;23688;33.130;-117.188;2023-04-26T04:30:56;99393.53;;;15.28;100.00
37848;BME280;23688;33.130;-117.188;2023-04-26T04:33:23;99385.31;;;15.10;100.00
37848;BME280;23688;33.130;-117.188;2023-04-26T04:35:53;99395.31;;;15.29;100.00
37848;BME280;23688;33.130;-117.188;2023-04-26T04:38:20;99401.63;;;15.40;100.00
37848;BME280;23688;33.130;-117.188;2023-04-26T04:40:49;99387.63;;;15.37;100.00
37848;BME280;23688;33.130;-117.188;2023-04-26T04:43:16;99391.25;;;15.44;100.00
37848;BME280;23688;33.130;-117.188;2023-04-26T04:45:46;99391.41;;;15.53;100.00
37848;BME280;23688;33.130;-117.188;2023-04-26T04:48:14;99374.06;;;15.56;100.00
37848;BME280;23688;33.130;-117.188;2023-04-26T04:50:41;99386.41;;;15.65;100.00
37848;BME280;23688;33.130;-117.188;2023-04-26T04:53:07;99394.53;;;15.76;100.00
37848;BME280;23688;33.130;-117.188;2023-04-26T04:55:34;99394.59;;;15.80;100.00
37848;BME280;23688;33.130;-117.188;2023-04-26T04:58:02;99397.97;;;15.73;100.00
37848;BME280;23688;33.130;-117.188;2023-04-26T05:00:32;99407.69;;;15.80;100.00
37848;BME280;23688;33.130;-117.188;2023-04-26T05:02:59;99402.47;;;15.82;100.00
37848;BME280;23688;33.130;-117.188;2023-04-26T05:05:26;99358.44;;;15.62;100.00
37848;BME280;23688;33.130;-117.188;2023-04-26T05:07:52;99393.69;;;15.78;100.00
37848;BME280;23688;33.130;-117.188;2023-04-26T05:10:19;99402.50;;;15.83;100.00
37848;BME280;23688;33.130;-117.188;2023-04-26T05:12:45;99406.69;;;15.74;100.00
37848;BME280;23688;33.130;-117.188;2023-04-26T05:15:12;99405.72;;;15.70;100.00
37848;BME280;23688;33.130;-117.188;2023-04-26T05:17:38;99411.19;;;15.82;100.00
37848;BME280;23688;33.130;-117.188;2023-04-26T05:20:05;99392.00;;;15.80;100.00
37848;BME280;23688;33.130;-117.188;2023-04-26T05:22:32;99389.94;;;15.67;100.00
37848;BME280;23688;33.130;-117.188;2023-04-26T05:25:01;99408.66;;;15.86;100.00
37848;BME280;23688;33.130;-117.188;2023-04-26T05:27:29;99397.22;;;15.82;100.00
37848;BME280;23688;33.130;-117.188;2023-04-26T05:29:55;99392.88;;;15.81;100.00
37848;BME280;23688;33.130;-117.188;2023-04-26T05:32:21;99396.34;;;15.81;100.00
37848;BME280;23688;33.130;-117.188;2023-04-26T05:34:48;99392.03;;;15.83;100.00
37848;BME280;23688;33.130;-117.188;2023-04-26T05:37:14;99411.53;;;16.01;100.00
37848;BME280;23688;33.130;-117.188;2023-04-26T05:39:43;99414.13;;;15.99;100.00
37848;BME280;23688;33.130;-117.188;2023-04-26T05:42:10;99389.41;;;15.83;100.00
37848;BME280;23688;33.130;-117.188;2023-04-26T05:44:36;99409.59;;;15.89;100.00
37848;BME280;23688;33.130;-117.188;2023-04-26T05:47:02;99406.22;;;15.95;100.00
37848;BME280;23688;33.130;-117.188;2023-04-26T05:49:28;99389.63;;;15.96;100.00
37848;BME280;23688;33.130;-117.188;2023-04-26T05:51:57;99392.97;;;15.87;100.00
37848;BME280;23688;33.130;-117.188;2023-04-26T05:54:23;99403.69;;;16.01;100.00
37848;BME280;23688;33.130;-117.188;2023-04-26T05:56:49;99403.66;;;15.99;100.00
37848;BME280;23688;33.130;-117.188;2023-04-26T05:59:16;99397.50;;;15.96;100.00
37848;BME280;23688;33.130;-117.188;2023-04-26T06:01:42;99386.00;;;15.88;100.00
37848;BME280;23688;33.130;-117.188;2023-04-26T06:04:08;99399.34;;;16.01;100.00
37848;BME280;23688;33.130;-117.188;2023-04-26T06:06:35;99380.69;;;15.84;100.00
37848;BME280;23688;33.130;-117.188;2023-04-26T06:09:02;99397.44;;;15.94;100.00
37848;BME280;23688;33.130;-117.188;2023-04-26T06:11:29;99397.22;;;15.82;100.00
37848;BME280;23688;33.130;-117.188;2023-04-26T06:13:55;99409.44;;;15.81;100.00
37848;BME280;23688;33.130;-117.188;2023-04-26T06:16:22;99399.97;;;15.90;100.00
37848;BME280;23688;33.130;-117.188;2023-04-26T06:18:48;99384.44;;;15.52;100.00
37848;BME280;23688;33.130;-117.188;2023-04-26T06:21:14;99391.50;;;15.57;100.00
37848;BME280;23688;33.130;-117.188;2023-04-26T06:23:41;99373.81;;;15.46;100.00
37848;BME280;23688;33.130;-117.188;2023-04-26T06:26:07;99381.94;;;15.59;100.00
37848;BME280;23688;33.130;-117.188;2023-04-26T06:28:33;99399.41;;;15.59;100.00
37848;BME280;23688;33.130;-117.188;2023-04-26T06:31:00;99401.91;;;15.54;100.00
37848;BME280;23688;33.130;-117.188;2023-04-26T06:33:26;99400.41;;;15.67;100.00
37848;BME280;23688;33.130;-117.188;2023-04-26T06:35:52;99403.06;;;15.69;100.00
37848;BME280;23688;33.130;-117.188;2023-04-26T06:38:18;99403.19;;;15.75;100.00
37848;BME280;23688;33.130;-117.188;2023-04-26T06:40:45;99396.06;;;15.68;100.00
37848;BME280;23688;33.130;-117.188;2023-04-26T06:43:11;99392.38;;;15.56;100.00
37848;BME280;23688;33.130;-117.188;2023-04-26T06:45:37;99393.25;;;15.57;100.00
37848;BME280;23688;33.130;-117.188;2023-04-26T06:48:04;99410.13;;;15.71;100.00
37848;BME280;23688;33.130;-117.188;2023-04-26T06:50:31;99416.25;;;15.72;100.00
37848;BME280;23688;33.130;-117.188;2023-04-26T06:52:57;99400.44;;;15.69;100.00
37848;BME280;23688;33.130;-117.188;2023-04-26T06:55:23;99412.84;;;15.76;100.00
37848;BME280;23688;33.130;-117.188;2023-04-26T06:57:50;99417.03;;;15.69;100.00
37848;BME280;23688;33.130;-117.188;2023-04-26T07:00:17;99427.31;;;15.60;100.00
37848;BME280;23688;33.130;-117.188;2023-04-26T07:02:44;99425.53;;;15.57;100.00
37848;BME280;23688;33.130;-117.188;2023-04-26T07:05:10;99414.03;;;15.51;100.00
37848;BME280;23688;33.130;-117.188;2023-04-26T07:07:36;99428.59;;;15.36;100.00
37848;BME280;23688;33.130;-117.188;2023-04-26T07:10:03;99425.78;;;15.29;100.00
37848;BME280;23688;33.130;-117.188;2023-04-26T07:12:29;99407.47;;;15.27;100.00
37848;BME280;23688;33.130;-117.188;2023-04-26T07:14:56;99423.97;;;15.25;100.00
37848;BME280;23688;33.130;-117.188;2023-04-26T07:17:22;99422.34;;;15.31;100.00
37848;BME280;23688;33.130;-117.188;2023-04-26T07:19:49;99432.31;;;15.48;100.00
37848;BME280;23688;33.130;-117.188;2023-04-26T07:22:15;99422.88;;;15.56;100.00
37848;BME280;23688;33.130;-117.188;2023-04-26T07:24:41;99413.50;;;15.66;100.00
37848;BME280;23688;33.130;-117.188;2023-04-26T07:27:08;99405.59;;;15.64;100.00
37848;BME280;23688;33.130;-117.188;2023-04-26T07:29:34;99422.94;;;15.59;100.00
37848;BME280;23688;33.130;-117.188;2023-04-26T07:32:01;99421.25;;;15.61;100.00
37848;BME280;23688;33.130;-117.188;2023-04-26T07:34:27;99412.59;;;15.65;100.00
37848;BME280;23688;33.130;-117.188;2023-04-26T07:36:53;99423.31;;;15.77;100.00
37848;BME280;23688;33.130;-117.188;2023-04-26T07:39:20;99412.94;;;15.80;100.00
37848;BME280;23688;33.130;-117.188;2023-04-26T07:41:47;99418.25;;;15.85;100.00
37848;BME280;23688;33.130;-117.188;2023-04-26T07:44:13;99405.97;;;15.82;100.00
37848;BME280;23688;33.130;-117.188;2023-04-26T07:46:40;99421.00;;;15.93;100.00
37848;BME280;23688;33.130;-117.188;2023-04-26T07:49:06;99421.94;;;15.95;100.00
37848;BME280;23688;33.130;-117.188;2023-04-26T07:51:34;99421.06;;;15.96;100.00
37848;BME280;23688;33.130;-117.188;2023-04-26T07:54:01;99413.22;;;15.96;100.00
37848;BME280;23688;33.130;-117.188;2023-04-26T07:56:28;99411.47;;;15.95;100.00
37848;BME280;23688;33.130;-117.188;2023-04-26T07:58:54;99414.13;;;15.99;100.00
37848;BME280;23688;33.130;-117.188;2023-04-26T08:01:21;99413.16;;;15.93;100.00
37848;BME280;23688;33.130;-117.188;2023-04-26T08:03:47;99426.34;;;15.99;100.00
37848;BME280;23688;33.130;-117.188;2023-04-26T08:06:13;99428.09;;;15.98;100.00
37848;BME280;23688;33.130;-117.188;2023-04-26T08:08:41;99420.97;;;15.91;100.00
37848;BME280;23688;33.130;-117.188;2023-04-26T08:11:10;99437.31;;;15.78;100.00
37848;BME280;23688;33.130;-117.188;2023-04-26T08:13:36;99429.47;;;15.78;100.00
37848;BME280;23688;33.130;-117.188;2023-04-26T08:16:03;99412.84;;;15.77;100.00
37848;BME280;23688;33.130;-117.188;2023-04-26T08:18:29;99415.25;;;15.67;100.00
37848;BME280;23688;33.130;-117.188;2023-04-26T08:20:56;99421.34;;;15.67;100.00
37848;BME280;23688;33.130;-117.188;2023-04-26T08:23:22;99417.84;;;15.67;100.00
37848;BME280;23688;33.130;-117.188;2023-04-26T08:25:48;99413.31;;;15.56;100.00
37848;BME280;23688;33.130;-117.188;2023-04-26T08:28:15;99414.19;;;15.57;100.00
37848;BME280;23688;33.130;-117.188;2023-04-26T08:30:41;99412.47;;;15.60;100.00
37848;BME280;23688;33.130;-117.188;2023-04-26T08:33:08;99423.97;;;15.67;100.00
37848;BME280;23688;33.130;-117.188;2023-04-26T08:35:35;99415.97;;;15.59;100.00
37848;BME280;23688;33.130;-117.188;2023-04-26T08:38:01;99409.94;;;15.63;100.00
37848;BME280;23688;33.130;-117.188;2023-04-26T08:40:29;99407.38;;;15.67;100.00
37848;BME280;23688;33.130;-117.188;2023-04-26T08:42:56;99411.06;;;15.75;100.00
37848;BME280;23688;33.130;-117.188;2023-04-26T08:45:23;99404.94;;;15.73;100.00
37848;BME280;23688;33.130;-117.188;2023-04-26T08:47:52;99407.63;;;15.77;100.00
37848;BME280;23688;33.130;-117.188;2023-04-26T08:50:23;99407.69;;;15.80;100.00
37848;BME280;23688;33.130;-117.188;2023-04-26T08:52:51;99405.97;;;15.82;100.00
37848;BME280;23688;33.130;-117.188;2023-04-26T08:55:18;99408.66;;;15.86;100.00
37848;BME280;23688;33.130;-117.188;2023-04-26T08:57:47;99413.06;;;15.90;100.00
37848;BME280;23688;33.130;-117.188;2023-04-26T09:00:15;99400.81;;;15.87;100.00
37848;BME280;23688;33.130;-117.188;2023-04-26T09:02:50;99404.31;;;15.86;100.00
37848;BME280;23688;33.130;-117.188;2023-04-26T09:05:18;99405.22;;;15.90;100.00
37848;BME280;23688;33.130;-117.188;2023-04-26T09:07:49;99407.88;;;15.91;100.00
37848;BME280;23688;33.130;-117.188;2023-04-26T09:10:20;99394.75;;;15.88;100.00
37848;BME280;23688;33.130;-117.188;2023-04-26T09:12:51;99401.72;;;15.89;100.00
37848;BME280;23688;33.130;-117.188;2023-04-26T09:15:19;99397.41;;;15.91;100.00
37848;BME280;23688;33.130;-117.188;2023-04-26T09:17:47;99400.94;;;15.93;100.00
37848;BME280;23688;33.130;-117.188;2023-04-26T09:22:53;99394.00;;;15.95;100.00
37848;BME280;23688;33.130;-117.188;2023-04-26T09:25:29;99393.13;;;15.95;100.00
37848;BME280;23688;33.130;-117.188;2023-04-26T09:27:57;99380.81;;;15.91;100.00
37848;BME280;23688;33.130;-117.188;2023-04-26T09:30:24;99396.66;;;15.98;100.00
37848;BME280;23688;33.130;-117.188;2023-04-26T09:32:56;99397.53;;;15.99;100.00
37848;BME280;23688;33.130;-117.188;2023-04-26T09:35:40;99394.09;;;16.00;100.00
37848;BME280;23688;33.130;-117.188;2023-04-26T09:38:16;99387.94;;;15.99;100.00
37848;BME280;23688;33.130;-117.188;2023-04-26T09:40:45;99401.03;;;15.98;100.00
37848;BME280;23688;33.130;-117.188;2023-04-26T09:43:13;99393.88;;;15.88;100.00
37848;BME280;23688;33.130;-117.188;2023-04-26T09:45:58;99390.41;;;15.90;100.00
37848;BME280;23688;33.130;-117.188;2023-04-26T09:48:29;99388.75;;;15.95;100.00
37848;BME280;23688;33.130;-117.188;2023-04-26T09:50:58;99380.09;;;15.98;100.00
37848;BME280;23688;33.130;-117.188;2023-04-26T09:53:31;99382.75;;;16.01;100.00
37848;BME280;23688;33.130;-117.188;2023-04-26T09:56:12;99386.16;;;15.97;100.00
37848;BME280;23688;33.130;-117.188;2023-04-26T09:58:57;99382.72;;;15.99;100.00
37848;BME280;23688;33.130;-117.188;2023-04-26T10:01:25;99374.75;;;15.93;100.00
37848;BME280;23688;33.130;-117.188;2023-04-26T10:03:59;99365.00;;;15.84;100.00
37848;BME280;23688;33.130;-117.188;2023-04-26T10:06:27;99371.09;;;15.83;100.00
37848;BME280;23688;33.130;-117.188;2023-04-26T10:08:54;99373.75;;;15.87;100.00
37848;BME280;23688;33.130;-117.188;2023-04-26T10:11:21;99371.06;;;15.82;100.00
37848;BME280;23688;33.130;-117.188;2023-04-26T10:13:49;99377.91;;;15.74;100.00
37848;BME280;23688;33.130;-117.188;2023-04-26T10:16:16;99372.00;;;15.86;100.00
37848;BME280;23688;33.130;-117.188;2023-04-26T10:18:43;99369.47;;;15.90;100.00
37848;BME280;23688;33.130;-117.188;2023-04-26T10:21:17;99366.81;;;15.89;100.00
37848;BME280;23688;33.130;-117.188;2023-04-26T10:23:46;99358.00;;;15.83;100.00
37848;BME280;23688;33.130;-117.188;2023-04-26T10:26:50;99380.78;;;15.88;100.00
37848;BME280;23688;33.130;-117.188;2023-04-26T10:29:21;99352.63;;;15.76;100.00
37848;BME280;23688;33.130;-117.188;2023-04-26T10:32:07;99357.09;;;15.81;100.00
37848;BME280;23688;33.130;-117.188;2023-04-26T10:34:41;99361.31;;;15.75;100.00
37848;BME280;23688;33.130;-117.188;2023-04-26T10:39:41;99375.50;;;15.86;100.00
37848;BME280;23688;33.130;-117.188;2023-04-26T10:42:40;99363.28;;;15.87;100.00
37848;BME280;23688;33.130;-117.188;2023-04-26T10:45:27;99365.19;;;15.95;100.00
37848;BME280;23688;33.130;-117.188;2023-04-26T10:48:13;99365.28;;;16.00;100.00
37848;BME280;23688;33.130;-117.188;2023-04-26T10:53:30;99372.13;;;15.93;100.00
37848;BME280;23688;33.130;-117.188;2023-04-26T10:55:57;99374.81;;;15.95;100.00
37848;BME280;23688;33.130;-117.188;2023-04-26T10:58:40;99360.66;;;15.87;100.00
37848;BME280;23688;33.130;-117.188;2023-04-26T11:01:08;99371.13;;;15.87;100.00
37848;BME280;23688;33.130;-117.188;2023-04-26T11:03:39;99362.28;;;15.80;100.00
37848;BME280;23688;33.130;-117.188;2023-04-26T11:06:12;99371.03;;;15.80;100.00
37848;BME280;23688;33.130;-117.188;2023-04-26T11:08:40;99377.25;;;15.86;100.00
37848;BME280;23688;33.130;-117.188;2023-04-26T11:11:11;99379.09;;;15.91;100.00
37848;BME280;23688;33.130;-117.188;2023-04-26T11:13:42;99361.59;;;15.89;100.00
37848;BME280;23688;33.130;-117.188;2023-04-26T11:16:10;99370.22;;;15.84;100.00
37848;BME280;23688;33.130;-117.188;2023-04-26T11:18:40;99376.19;;;15.77;100.00
37848;BME280;23688;33.130;-117.188;2023-04-26T11:21:07;99374.41;;;15.75;100.00
37848;BME280;23688;33.130;-117.188;2023-04-26T11:23:35;99368.34;;;15.77;100.00
37848;BME280;23688;33.130;-117.188;2023-04-26T11:26:05;99372.63;;;15.72;100.00
37848;BME280;23688;33.130;-117.188;2023-04-26T11:28:37;99367.47;;;15.75;100.00
37848;BME280;23688;33.130;-117.188;2023-04-26T11:31:05;99369.25;;;15.79;100.00
37848;BME280;23688;33.130;-117.188;2023-04-26T11:33:32;99368.50;;;15.85;100.00
37848;BME280;23688;33.130;-117.188;2023-04-26T11:36:01;99359.84;;;15.89;100.00
37848;BME280;23688;33.130;-117.188;2023-04-26T11:38:28;99359.72;;;15.81;100.00
37848;BME280;23688;33.130;-117.188;2023-04-26T11:40:59;99360.25;;;15.65;100.00
37848;BME280;23688;33.130;-117.188;2023-04-26T11:43:39;99369.50;;;15.48;100.00
37848;BME280;23688;33.130;-117.188;2023-04-26T11:46:06;99345.09;;;15.47;100.00
37848;BME280;23688;33.130;-117.188;2023-04-26T11:48:35;99350.16;;;15.39;100.00
37848;BME280;23688;33.130;-117.188;2023-04-26T11:51:05;99348.47;;;15.41;100.00
37848;BME280;23688;33.130;-117.188;2023-04-26T11:53:37;99361.88;;;15.60;100.00
37848;BME280;23688;33.130;-117.188;2023-04-26T11:56:13;99360.25;;;15.65;100.00
37848;BME280;23688;33.130;-117.188;2023-04-26T12:01:11;99354.13;;;15.65;100.00
37848;BME280;23688;33.130;-117.188;2023-04-26T12:03:37;99347.06;;;15.59;100.00
37848;BME280;23688;33.130;-117.188;2023-04-26T12:06:04;99355.69;;;15.55;100.00
37848;BME280;23688;33.130;-117.188;2023-04-26T12:08:32;99365.38;;;15.59;100.00
37848;BME280;23688;33.130;-117.188;2023-04-26T12:10:59;99353.06;;;15.55;100.00
37848;BME280;23688;33.130;-117.188;2023-04-26T12:13:27;99370.69;;;15.63;100.00
37848;BME280;23688;33.130;-117.188;2023-04-26T12:15:54;99363.53;;;15.55;100.00
37848;BME280;23688;33.130;-117.188;2023-04-26T12:18:21;99349.25;;;15.37;100.00
37848;BME280;23688;33.130;-117.188;2023-04-26T12:20:57;99372.16;;;15.51;100.00
37848;BME280;23688;33.130;-117.188;2023-04-26T12:23:34;99365.31;;;15.56;100.00
37848;BME280;23688;33.130;-117.188;2023-04-26T12:26:01;99362.91;;;15.67;100.00
37848;BME280;23688;33.130;-117.188;2023-04-26T12:28:28;99351.69;;;15.71;100.00
37848;BME280;23688;33.130;-117.188;2023-04-26T12:30:54;99362.22;;;15.75;100.00
37848;BME280;23688;33.130;-117.188;2023-04-26T12:33:21;99351.75;;;15.75;100.00
37848;BME280;23688;33.130;-117.188;2023-04-26T12:35:48;99357.84;;;15.74;100.00